Time;durP1;ratioP1;P1;durP2;ratioP2;P2;SDS_P1;SDS_P2;PMS_P1;PMS_P2;Temp;Humidity;BMP_temperature;BMP_pressure;BME280_temperature;BME280_humidity;BME280_pressure;Samples;Min_cycle;Max_cycle;Signal;HPM_P1;HPM_P2
2024/01/17 00:01:02;;;;;;;15.50;7.97;;;;;;;;;;5028326;28;20559;-73
2024/01/17 00:03:28;;;;;;;19.03;7.97;;;-2.80;1.00;;;;;;5022058;28;20170;-73
2024/01/17 00:05:53;;;;;;;15.20;8.50;;;-3.00;1.00;;;;;;5024278;28;20409;-74
2024/01/17 00:08:19;;;;;;;16.97;8.50;;;-2.30;1.00;;;;;;5024102;28;20473;-73
2024/01/17 00:10:44;;;;;;;14.47;8.50;;;-2.60;1.00;;;;;;5031965;28;20233;-72
2024/01/17 00:13:10;;;;;;;16.63;7.83;;;-2.60;1.00;;;;;;5014299;28;20505;-76
2024/01/17 00:15:35;;;;;;;14.20;8.13;;;-2.40;1.00;;;;;;5027912;28;20184;-74
2024/01/17 00:18:01;;;;;;;15.40;8.63;;;-2.30;1.00;;;;;;5013829;28;20222;-74
2024/01/17 00:20:26;;;;;;;18.10;8.70;;;-2.60;1.00;;;;;;5023146;28;20213;-73
2024/01/17 00:22:54;;;;;;;14.30;8.20;;;-2.70;1.00;;;;;;5029842;28;20559;-73
2024/01/17 00:25:19;;;;;;;17.70;8.23;;;-2.70;1.00;;;;;;5034426;28;20202;-75
2024/01/17 00:27:49;;;;;;;13.23;8.00;;;-2.50;1.00;;;;;;5033499;28;20539;-74
2024/01/17 00:30:15;;;;;;;22.20;9.23;;;;;;;;;;5028244;28;20201;-73
2024/01/17 00:32:40;;;;;;;17.57;8.20;;;-2.40;1.00;;;;;;5018354;28;20425;-76
2024/01/17 00:35:08;;;;;;;19.57;8.30;;;-2.50;1.00;;;;;;5022230;28;20503;-73
2024/01/17 00:37:34;;;;;;;14.50;8.30;;;-2.40;1.00;;;;;;5020884;28;20207;-73
2024/01/17 00:39:59;;;;;;;15.77;8.00;;;-2.50;1.00;;;;;;5030811;28;20436;-73
2024/01/17 00:42:26;;;;;;;25.87;7.60;;;-2.60;1.00;;;;;;5024102;28;20629;-72
2024/01/17 00:44:52;;;;;;;19.23;8.20;;;-2.40;1.00;;;;;;5021488;28;20173;-76
2024/01/17 00:47:18;;;;;;;17.30;8.53;;;-2.60;1.00;;;;;;5031659;28;20420;-73
2024/01/17 00:49:43;;;;;;;18.93;9.03;;;-2.40;1.00;;;;;;5024633;28;20817;-78
2024/01/17 00:52:09;;;;;;;16.87;7.63;;;-2.70;1.00;;;;;;5036014;28;20261;-73
2024/01/17 00:54:35;;;;;;;16.93;8.77;;;-2.40;1.00;;;;;;5014837;28;20209;-72
2024/01/17 00:57:01;;;;;;;14.90;7.10;;;;;;;;;;5022831;28;20499;-73
2024/01/17 00:59:26;;;;;;;13.33;6.87;;;-2.30;1.00;;;;;;5026937;28;20215;-74
2024/01/17 01:01:52;;;;;;;15.17;7.07;;;-2.30;1.00;;;;;;5027242;28;20428;-75
2024/01/17 01:04:17;;;;;;;12.37;7.23;;;-2.10;1.00;;;;;;5015213;28;20249;-73
2024/01/17 01:06:43;;;;;;;12.40;6.77;;;;;;;;;;5022859;28;20182;-73
2024/01/17 01:09:09;;;;;;;17.00;7.37;;;-1.90;1.00;;;;;;5017329;28;20214;-73
2024/01/17 01:11:35;;;;;;;11.37;7.03;;;-2.50;1.00;;;;;;5014682;28;20190;-72
2024/01/17 01:14:01;;;;;;;18.20;7.33;;;-2.00;1.00;;;;;;5023093;28;20421;-74
2024/01/17 01:16:27;;;;;;;16.53;7.00;;;-2.20;1.00;;;;;;5022379;28;20251;-76
2024/01/17 01:18:52;;;;;;;19.43;7.47;;;-2.00;1.00;;;;;;5019640;28;20417;-73
2024/01/17 01:21:19;;;;;;;13.53;7.57;;;-1.90;1.00;;;;;;5054311;28;20268;-73
2024/01/17 01:23:45;;;;;;;14.10;6.93;;;-1.80;1.00;;;;;;5025135;28;20174;-73
2024/01/17 01:26:11;;;;;;;13.87;6.40;;;-1.90;1.00;;;;;;5021521;28;20938;-72
2024/01/17 01:28:36;;;;;;;13.73;5.90;;;-1.60;1.00;;;;;;5028411;28;20504;-74
2024/01/17 01:31:02;;;;;;;13.50;6.13;;;-1.90;1.00;;;;;;5027109;28;20182;-76
2024/01/17 01:33:27;;;;;;;10.47;6.27;;;-1.80;1.00;;;;;;5024265;28;20189;-75
2024/01/17 01:35:52;;;;;;;15.33;6.47;;;-1.70;1.00;;;;;;5033227;28;20197;-74
2024/01/17 01:38:18;;;;;;;12.67;6.20;;;-1.30;1.00;;;;;;5017215;28;20229;-74
2024/01/17 01:40:44;;;;;;;15.07;6.50;;;-1.40;1.00;;;;;;5019842;28;20702;-76
2024/01/17 01:43:22;;;;;;;10.83;6.27;;;-1.10;1.00;;;;;;5026829;28;20231;-73
2024/01/17 01:45:57;;;;;;;11.90;6.27;;;-1.00;1.00;;;;;;5030365;28;20583;-76
2024/01/17 01:48:23;;;;;;;14.27;6.30;;;-1.10;1.00;;;;;;5025644;28;20447;-74
2024/01/17 01:50:49;;;;;;;11.13;6.50;;;-1.40;1.00;;;;;;5029831;28;20433;-76
2024/01/17 01:53:14;;;;;;;15.30;6.40;;;-1.30;1.00;;;;;;5028200;28;20446;-76
2024/01/17 01:55:40;;;;;;;13.67;6.37;;;-1.50;1.00;;;;;;5029322;28;20178;-73
2024/01/17 01:58:05;;;;;;;13.63;7.13;;;-1.40;1.00;;;;;;5035084;28;20213;-73
2024/01/17 02:00:31;;;;;;;15.00;7.20;;;-1.20;1.00;;;;;;5020041;28;20583;-73
2024/01/17 02:02:57;;;;;;;13.43;7.10;;;-1.60;1.00;;;;;;5033883;28;20566;-79
2024/01/17 02:05:24;;;;;;;11.20;6.63;;;-1.80;1.00;;;;;;5029426;28;20184;-74
2024/01/17 02:07:50;;;;;;;12.60;6.43;;;-1.50;1.00;;;;;;5028073;28;20519;-73
2024/01/17 02:10:16;;;;;;;9.37;6.07;;;-1.40;1.00;;;;;;5029508;28;20449;-73
2024/01/17 02:12:43;;;;;;;13.83;6.50;;;-1.80;1.00;;;;;;5030967;28;20431;-73
2024/01/17 02:15:09;;;;;;;13.07;6.93;;;-0.90;1.00;;;;;;5038053;28;20185;-72
2024/01/17 02:17:34;;;;;;;14.43;6.37;;;-1.20;1.00;;;;;;5016859;28;20469;-73
2024/01/17 02:20:00;;;;;;;11.33;7.00;;;-1.10;1.00;;;;;;5022421;28;20209;-76
2024/01/17 02:22:25;;;;;;;15.23;6.37;;;-1.10;1.00;;;;;;5037941;28;20194;-74
2024/01/17 02:24:51;;;;;;;11.43;6.70;;;-1.10;1.00;;;;;;5021107;28;20182;-73
2024/01/17 02:27:16;;;;;;;9.63;6.23;;;-1.20;1.00;;;;;;5029210;28;20193;-75
2024/01/17 02:29:45;;;;;;;12.93;6.37;;;-1.00;1.00;;;;;;5034094;28;20213;-73
2024/01/17 02:32:11;;;;;;;14.73;7.13;;;0.10;1.00;;;;;;5027262;28;20186;-75
2024/01/17 02:34:36;;;;;;;17.67;7.03;;;-0.70;1.00;;;;;;5010587;28;20785;-77
2024/01/17 02:37:02;;;;;;;15.27;6.90;;;-0.90;1.00;;;;;;5014983;28;20229;-76
2024/01/17 02:39:27;;;;;;;12.27;6.43;;;-0.90;1.00;;;;;;5017551;28;20209;-73
2024/01/17 02:41:53;;;;;;;14.60;7.60;;;-0.60;1.00;;;;;;5023630;28;20636;-74
2024/01/17 02:44:19;;;;;;;12.80;6.60;;;-1.30;1.00;;;;;;5015076;28;20225;-76
2024/01/17 02:46:44;;;;;;;10.70;6.33;;;-1.10;1.00;;;;;;5015187;28;20190;-70
2024/01/17 02:49:15;;;;;;;11.30;7.43;;;-0.90;1.00;;;;;;5030452;28;20248;-74
2024/01/17 02:51:41;;;;;;;13.20;7.13;;;-0.60;1.00;;;;;;5040923;28;20547;-71
2024/01/17 02:54:06;;;;;;;10.70;6.90;;;-1.00;1.00;;;;;;5033165;28;20410;-74
2024/01/17 02:56:32;;;;;;;12.30;6.70;;;-0.90;1.00;;;;;;5027316;28;20205;-74
2024/01/17 02:58:57;;;;;;;9.27;5.93;;;;;;;;;;5031098;28;20212;-79
2024/01/17 03:01:23;;;;;;;10.33;6.40;;;-0.90;1.00;;;;;;5020367;28;20173;-73
2024/01/17 03:03:48;;;;;;;11.93;6.63;;;-0.50;1.00;;;;;;5024408;28;20591;-72
2024/01/17 03:06:17;;;;;;;11.07;6.83;;;-0.40;1.00;;;;;;5020677;28;20188;-73
2024/01/17 03:08:42;;;;;;;12.70;7.07;;;-0.80;1.00;;;;;;5016736;28;20210;-75
2024/01/17 03:11:08;;;;;;;21.90;7.40;;;-0.90;1.00;;;;;;5015474;28;20463;-78
2024/01/17 03:13:33;;;;;;;13.03;6.40;;;-0.50;1.00;;;;;;5044864;28;20552;-72
2024/01/17 03:15:59;;;;;;;13.33;6.73;;;-0.40;1.00;;;;;;5021222;28;20180;-70
2024/01/17 03:18:24;;;;;;;16.57;6.90;;;-0.30;1.00;;;;;;5030747;28;20219;-75
2024/01/17 03:20:50;;;;;;;13.57;6.20;;;-0.50;1.00;;;;;;5036631;28;20200;-73
2024/01/17 03:23:15;;;;;;;13.80;6.80;;;-0.20;1.00;;;;;;5039639;28;20192;-73
2024/01/17 03:25:40;;;;;;;12.83;6.30;;;-0.10;1.00;;;;;;5040852;28;20252;-76
2024/01/17 03:28:06;;;;;;;16.37;7.10;;;-0.10;1.00;;;;;;5034423;28;20694;-73
2024/01/17 03:30:33;;;;;;;13.40;6.70;;;-0.80;1.00;;;;;;5026397;28;20196;-73
2024/01/17 03:32:59;;;;;;;12.63;6.80;;;-0.10;1.00;;;;;;5017014;28;20225;-77
2024/01/17 03:35:25;;;;;;;12.00;7.23;;;-0.10;1.00;;;;;;5035630;28;20489;-74
2024/01/17 03:37:50;;;;;;;9.20;5.87;;;0.00;1.00;;;;;;5021988;28;20226;-73
2024/01/17 03:40:16;;;;;;;14.77;7.30;;;-0.70;1.00;;;;;;5025528;28;20568;-71
2024/01/17 03:42:41;;;;;;;12.13;7.07;;;-0.40;1.00;;;;;;5029698;28;20668;-73
2024/01/17 03:45:07;;;;;;;12.43;7.10;;;-0.50;1.00;;;;;;5032596;28;20363;-73
2024/01/17 03:47:32;;;;;;;9.17;6.47;;;-0.50;1.00;;;;;;5034666;28;20181;-73
2024/01/17 03:49:58;;;;;;;12.33;6.60;;;-0.40;1.00;;;;;;5027264;28;20672;-75
2024/01/17 03:52:23;;;;;;;12.40;6.27;;;-0.30;1.00;;;;;;5031068;28;20212;-75
2024/01/17 03:54:49;;;;;;;15.30;7.23;;;-0.10;1.00;;;;;;5024076;28;20186;-74
2024/01/17 03:57:15;;;;;;;18.20;6.80;;;-0.50;1.00;;;;;;5024584;28;20224;-74
2024/01/17 03:59:43;;;;;;;13.27;7.17;;;-0.40;1.00;;;;;;5027194;28;20283;-72
2024/01/17 04:02:08;;;;;;;14.00;7.00;;;-1.20;1.00;;;;;;5027492;28;20895;-77
2024/01/17 04:04:34;;;;;;;13.10;7.07;;;-0.40;1.00;;;;;;5028295;28;20417;-75
2024/01/17 04:07:00;;;;;;;15.20;7.47;;;;;;;;;;5026506;28;20231;-72
2024/01/17 04:09:25;;;;;;;18.23;8.00;;;-0.50;1.00;;;;;;5017018;28;20295;-73
2024/01/17 04:11:52;;;;;;;15.37;7.33;;;-0.50;1.00;;;;;;5036290;28;20463;-76
2024/01/17 04:14:17;;;;;;;17.47;8.47;;;-0.50;1.00;;;;;;5023652;28;20186;-78
2024/01/17 04:16:43;;;;;;;14.00;8.20;;;-0.50;1.00;;;;;;5016690;28;20828;-77
2024/01/17 04:19:09;;;;;;;12.83;7.10;;;-0.40;1.00;;;;;;5014168;28;20195;-73
2024/01/17 04:21:35;;;;;;;13.37;6.87;;;-0.40;1.00;;;;;;5020764;28;20705;-73
2024/01/17 04:24:01;;;;;;;14.93;8.27;;;-0.50;1.00;;;;;;5036456;28;20892;-73
2024/01/17 04:26:26;;;;;;;15.60;8.57;;;-0.40;1.00;;;;;;5008343;28;20432;-74
2024/01/17 04:28:52;;;;;;;15.20;7.80;;;-0.20;1.00;;;;;;5020716;28;20580;-73
2024/01/17 04:31:36;;;;;;;14.50;7.70;;;-0.40;1.00;;;;;;5037062;28;20186;-73
2024/01/17 04:34:02;;;;;;;13.40;7.40;;;-0.30;1.00;;;;;;5009570;28;20431;-73
2024/01/17 04:36:29;;;;;;;17.47;7.47;;;-0.40;1.00;;;;;;5033765;28;20540;-77
2024/01/17 04:38:55;;;;;;;11.03;7.57;;;0.10;1.00;;;;;;5032337;28;20783;-76
2024/01/17 04:41:21;;;;;;;14.53;7.87;;;0.00;1.00;;;;;;5026427;28;20423;-71
2024/01/17 04:43:47;;;;;;;15.50;7.20;;;0.10;1.00;;;;;;5027583;28;20209;-73
2024/01/17 04:46:14;;;;;;;17.50;8.10;;;-0.30;1.00;;;;;;5029120;28;20433;-74
2024/01/17 04:48:41;;;;;;;13.93;6.57;;;-0.40;1.00;;;;;;5017620;28;21121;-73
2024/01/17 04:51:07;;;;;;;15.70;8.40;;;-0.40;1.00;;;;;;5032135;28;20449;-79
2024/01/17 04:53:33;;;;;;;16.20;7.30;;;;;;;;;;5031331;28;20908;-76
2024/01/17 04:56:01;;;;;;;15.23;7.93;;;-0.90;1.00;;;;;;5031780;28;20410;-76
2024/01/17 04:58:27;;;;;;;16.20;8.03;;;-0.10;1.00;;;;;;5024533;28;20511;-77
2024/01/17 05:00:53;;;;;;;15.47;7.90;;;-0.70;1.00;;;;;;5033240;28;20967;-74
2024/01/17 05:03:19;;;;;;;13.60;7.03;;;-0.40;1.00;;;;;;5023449;28;20437;-74
2024/01/17 05:05:45;;;;;;;17.03;8.07;;;0.00;1.00;;;;;;5017463;28;20413;-72
2024/01/17 05:08:11;;;;;;;13.97;8.20;;;0.00;1.00;;;;;;5012883;28;20604;-74
2024/01/17 05:10:43;;;;;;;28.90;9.00;;;-0.40;1.00;;;;;;5022753;28;20595;-74
2024/01/17 05:13:08;;;;;;;14.37;7.87;;;0.00;1.00;;;;;;5034124;28;20420;-73
2024/01/17 05:15:34;;;;;;;20.07;8.40;;;0.00;1.00;;;;;;5030550;28;20509;-74
2024/01/17 05:18:00;;;;;;;12.90;7.00;;;-0.40;1.00;;;;;;5035219;28;20229;-77
2024/01/17 05:20:25;;;;;;;16.40;8.70;;;-0.30;1.00;;;;;;5036013;28;20264;-76
2024/01/17 05:22:50;;;;;;;22.90;8.97;;;0.00;1.00;;;;;;5041904;28;20676;-74
2024/01/17 05:25:17;;;;;;;15.70;8.07;;;-0.40;1.00;;;;;;5042768;28;20177;-75
2024/01/17 05:27:50;;;;;;;20.30;8.77;;;0.00;1.00;;;;;;5024537;28;20185;-74
2024/01/17 05:30:17;;;;;;;15.30;9.50;;;-0.40;1.00;;;;;;5036360;28;20445;-76
2024/01/17 05:32:43;;;;;;;14.63;7.67;;;-0.50;1.00;;;;;;5028350;28;20424;-77
2024/01/17 05:35:09;;;;;;;16.60;8.30;;;;;;;;;;5019083;28;20417;-77
2024/01/17 05:37:35;;;;;;;16.10;8.40;;;-0.40;1.00;;;;;;5014718;28;20464;-73
2024/01/17 05:40:00;;;;;;;14.13;7.93;;;-0.40;1.00;;;;;;5029012;28;20441;-73
2024/01/17 05:42:26;;;;;;;22.40;8.40;;;-0.60;1.00;;;;;;5021626;28;20456;-73
2024/01/17 05:44:51;;;;;;;18.17;9.10;;;-0.50;1.00;;;;;;5027875;28;20265;-73
2024/01/17 05:47:17;;;;;;;11.50;7.40;;;-0.60;1.00;;;;;;5025969;28;20190;-77
2024/01/17 05:49:42;;;;;;;18.50;8.83;;;-0.40;1.00;;;;;;5026564;28;20241;-73
2024/01/17 05:52:08;;;;;;;18.43;8.40;;;-0.20;1.00;;;;;;5024488;28;20660;-73
2024/01/17 05:54:33;;;;;;;14.93;8.70;;;-0.20;1.00;;;;;;5020054;28;20224;-75
2024/01/17 05:56:59;;;;;;;17.50;8.67;;;-0.60;1.00;;;;;;5042640;28;20236;-75
2024/01/17 05:59:24;;;;;;;17.53;9.20;;;-0.30;1.00;;;;;;5017996;28;20585;-74
2024/01/17 06:01:50;;;;;;;14.60;8.63;;;-0.50;1.00;;;;;;5017445;28;20210;-76
2024/01/17 06:04:16;;;;;;;16.90;8.93;;;0.20;1.00;;;;;;5042043;28;20180;-73
2024/01/17 06:06:42;;;;;;;16.10;9.20;;;-0.20;1.00;;;;;;5031365;28;20245;-76
2024/01/17 06:09:07;;;;;;;16.60;8.73;;;-0.10;1.00;;;;;;5032742;28;20473;-74
2024/01/17 06:11:33;;;;;;;17.90;10.00;;;0.40;1.00;;;;;;5027200;28;20192;-74
2024/01/17 06:13:59;;;;;;;17.60;9.10;;;0.10;1.00;;;;;;5050157;28;20179;-73
2024/01/17 06:16:25;;;;;;;17.87;9.40;;;0.00;1.00;;;;;;5030875;28;20177;-71
2024/01/17 06:18:51;;;;;;;18.37;9.50;;;0.30;1.00;;;;;;5012893;28;20761;-73
2024/01/17 06:21:17;;;;;;;23.63;9.07;;;0.60;1.00;;;;;;5023881;28;20425;-74
2024/01/17 06:23:44;;;;;;;18.97;9.23;;;0.50;1.00;;;;;;5026313;28;20539;-75
2024/01/17 06:26:09;;;;;;;16.77;9.23;;;0.60;1.00;;;;;;5025362;28;20328;-73
2024/01/17 06:28:35;;;;;;;16.40;8.53;;;0.20;1.00;;;;;;5013085;28;20920;-76
2024/01/17 06:31:01;;;;;;;17.40;9.83;;;0.10;1.00;;;;;;5016749;28;20407;-71
2024/01/17 06:33:26;;;;;;;21.07;10.80;;;0.20;1.00;;;;;;5037976;28;20991;-74
2024/01/17 06:35:52;;;;;;;23.50;10.73;;;0.70;1.00;;;;;;5030652;28;20178;-76
2024/01/17 06:38:17;;;;;;;18.73;10.20;;;0.70;1.00;;;;;;5042488;28;20205;-77
2024/01/17 06:40:43;;;;;;;18.27;9.60;;;0.00;1.00;;;;;;5023444;28;20206;-74
2024/01/17 06:43:08;;;;;;;17.50;9.60;;;1.00;1.00;;;;;;5028793;28;20229;-74
2024/01/17 06:45:34;;;;;;;22.33;10.10;;;1.00;1.00;;;;;;5034949;28;20644;-74
2024/01/17 06:48:01;;;;;;;21.50;11.47;;;0.60;1.00;;;;;;5019005;28;20190;-74
2024/01/17 06:50:27;;;;;;;22.47;11.37;;;0.60;1.00;;;;;;5022441;28;20539;-74
2024/01/17 06:52:53;;;;;;;20.53;9.90;;;0.50;1.00;;;;;;5043298;28;20413;-72
2024/01/17 06:55:19;;;;;;;21.03;11.47;;;0.50;1.00;;;;;;5017263;28;20179;-74
2024/01/17 06:57:45;;;;;;;21.03;11.63;;;0.90;1.00;;;;;;5026307;28;20456;-74
2024/01/17 07:00:13;;;;;;;19.37;10.83;;;0.50;1.00;;;;;;5017283;28;20536;-75
2024/01/17 07:02:39;;;;;;;19.67;10.27;;;0.50;1.00;;;;;;5016535;28;20166;-79
2024/01/17 07:05:05;;;;;;;22.60;9.20;;;0.60;1.00;;;;;;5026664;28;20554;-75
2024/01/17 07:07:31;;;;;;;20.80;10.70;;;0.70;1.00;;;;;;5015575;28;20421;-75
2024/01/17 07:09:57;;;;;;;18.97;10.17;;;0.80;1.00;;;;;;5018636;28;20966;-77
2024/01/17 07:12:22;;;;;;;18.80;10.43;;;0.90;1.00;;;;;;5023477;28;20267;-74
2024/01/17 07:14:48;;;;;;;18.53;9.80;;;1.60;1.00;;;;;;5019904;28;20190;-75
2024/01/17 07:17:14;;;;;;;17.40;10.23;;;1.40;1.00;;;;;;5024953;28;20563;-74
2024/01/17 07:19:40;;;;;;;20.10;10.90;;;1.10;1.00;;;;;;5033110;28;20233;-75
2024/01/17 07:22:06;;;;;;;20.00;11.20;;;1.50;1.00;;;;;;5032986;28;20173;-75
2024/01/17 07:24:32;;;;;;;18.40;9.57;;;1.20;1.00;;;;;;5009222;28;20624;-76
2024/01/17 07:26:57;;;;;;;16.90;9.40;;;1.60;1.00;;;;;;5018323;28;20175;-74
2024/01/17 07:29:23;;;;;;;17.40;10.70;;;1.20;1.00;;;;;;5029395;28;20433;-74
2024/01/17 07:31:50;;;;;;;20.93;11.87;;;1.60;1.00;;;;;;5009620;28;20205;-74
2024/01/17 07:34:16;;;;;;;18.70;10.57;;;1.40;1.00;;;;;;5041663;28;20178;-77
2024/01/17 07:36:41;;;;;;;18.43;11.27;;;1.30;1.00;;;;;;5028408;28;20467;-74
2024/01/17 07:39:10;;;;;;;19.37;11.33;;;1.20;1.00;;;;;;5033483;28;20268;-75
2024/01/17 07:41:36;;;;;;;22.90;11.03;;;1.50;1.00;;;;;;5025056;28;20540;-77
2024/01/17 07:44:02;;;;;;;25.53;11.17;;;1.60;1.00;;;;;;5035242;28;20410;-73
2024/01/17 07:46:27;;;;;;;19.77;11.43;;;1.60;1.00;;;;;;5020971;28;20179;-75
2024/01/17 07:48:53;;;;;;;23.03;13.47;;;1.40;1.00;;;;;;5016700;28;20213;-72
2024/01/17 07:51:19;;;;;;;19.70;12.23;;;1.60;1.00;;;;;;5030024;28;20178;-77
2024/01/17 07:53:44;;;;;;;22.50;12.13;;;1.60;1.00;;;;;;5023754;28;20177;-73
2024/01/17 07:56:10;;;;;;;22.93;11.33;;;1.50;1.00;;;;;;5021029;28;20907;-75
2024/01/17 07:58:36;;;;;;;20.17;11.57;;;1.50;1.00;;;;;;5032094;28;20667;-77
2024/01/17 08:01:02;;;;;;;22.00;12.23;;;1.60;1.00;;;;;;5015790;28;20490;-74
2024/01/17 08:03:28;;;;;;;19.87;11.87;;;1.50;1.00;;;;;;5021616;28;20487;-75
2024/01/17 08:05:53;;;;;;;22.07;11.13;;;1.60;1.00;;;;;;5031771;28;20575;-75
2024/01/17 08:08:19;;;;;;;25.13;11.07;;;1.60;1.00;;;;;;5026929;28;20261;-73
2024/01/17 08:10:44;;;;;;;24.23;12.17;;;1.60;1.00;;;;;;5027779;28;20202;-73
2024/01/17 08:13:10;;;;;;;22.33;10.97;;;1.60;1.00;;;;;;5018281;28;20725;-74
2024/01/17 08:15:36;;;;;;;21.43;11.33;;;1.80;1.00;;;;;;5013280;28;20186;-74
2024/01/17 08:18:03;;;;;;;20.27;11.30;;;2.10;1.00;;;;;;5036716;28;20551;-76
2024/01/17 08:20:28;;;;;;;24.20;11.30;;;1.70;1.00;;;;;;5027544;28;20257;-74
2024/01/17 08:22:54;;;;;;;20.30;11.23;;;1.70;1.00;;;;;;5031099;28;20783;-76
2024/01/17 08:25:20;;;;;;;19.57;10.60;;;1.80;1.00;;;;;;5019468;28;20170;-74
2024/01/17 08:27:45;;;;;;;22.33;11.93;;;1.80;1.00;;;;;;5026659;28;20216;-76
2024/01/17 08:30:11;;;;;;;22.40;10.50;;;1.90;1.00;;;;;;5031596;28;20226;-76
2024/01/17 08:32:37;;;;;;;19.93;11.10;;;1.90;1.00;;;;;;5026237;28;20186;-76
2024/01/17 08:35:03;;;;;;;19.70;10.50;;;2.00;1.00;;;;;;5031172;28;20184;-77
2024/01/17 08:37:29;;;;;;;23.87;10.83;;;2.00;1.00;;;;;;5025273;28;20476;-76
2024/01/17 08:39:55;;;;;;;19.77;10.70;;;2.00;1.00;;;;;;5031535;28;20201;-78
2024/01/17 08:42:20;;;;;;;18.50;10.70;;;2.00;1.00;;;;;;5033754;28;20986;-73
2024/01/17 08:44:46;;;;;;;19.20;10.50;;;2.10;1.00;;;;;;5024584;28;20205;-78
2024/01/17 08:47:11;;;;;;;21.10;12.00;;;2.10;1.00;;;;;;5031756;28;20177;-75
2024/01/17 08:49:40;;;;;;;20.57;12.03;;;2.70;1.00;;;;;;5021464;28;20206;-77
2024/01/17 08:52:07;;;;;;;26.07;13.40;;;;;;;;;;5025864;28;20188;-74
2024/01/17 08:54:33;;;;;;;23.63;11.77;;;2.60;1.00;;;;;;5022920;28;20429;-76
2024/01/17 08:56:59;;;;;;;20.80;11.43;;;2.20;1.00;;;;;;5020089;28;20581;-76
2024/01/17 08:59:24;;;;;;;18.50;10.67;;;2.20;1.00;;;;;;5020547;28;21006;-76
2024/01/17 09:01:52;;;;;;;17.70;10.00;;;;;;;;;;5031203;28;20228;-75
2024/01/17 09:04:18;;;;;;;24.07;10.80;;;2.20;1.00;;;;;;5031559;28;20185;-78
2024/01/17 09:06:44;;;;;;;21.40;10.93;;;2.20;1.00;;;;;;5024077;28;20456;-76
2024/01/17 09:09:12;;;;;;;20.50;11.00;;;2.30;1.00;;;;;;5021604;28;20437;-77
2024/01/17 09:11:38;;;;;;;18.63;10.10;;;2.70;1.00;;;;;;5019864;28;20453;-74
2024/01/17 09:14:04;;;;;;;21.37;10.70;;;2.80;1.00;;;;;;5034805;28;20427;-76
2024/01/17 09:16:30;;;;;;;19.10;10.67;;;2.30;1.00;;;;;;5028562;28;20663;-73
2024/01/17 09:18:56;;;;;;;20.90;10.47;;;2.50;1.00;;;;;;5013429;28;20191;-73
2024/01/17 09:21:22;;;;;;;18.27;9.53;;;2.40;1.00;;;;;;5026325;28;20409;-73
2024/01/17 09:23:47;;;;;;;23.27;10.53;;;2.40;1.00;;;;;;5031482;28;20213;-77
2024/01/17 09:26:13;;;;;;;21.70;11.10;;;;;;;;;;5036886;28;20209;-74
2024/01/17 09:28:39;;;;;;;21.23;9.97;;;2.60;1.00;;;;;;5037141;28;20232;-78
2024/01/17 09:31:04;;;;;;;21.57;10.83;;;2.60;1.00;;;;;;5033315;28;20946;-75
2024/01/17 09:33:30;;;;;;;20.93;10.50;;;2.60;1.00;;;;;;5028424;28;20201;-75
2024/01/17 09:35:55;;;;;;;18.40;10.17;;;2.80;1.00;;;;;;5017038;28;20190;-76
2024/01/17 09:38:21;;;;;;;21.60;10.93;;;2.80;1.00;;;;;;5023889;28;20732;-77
2024/01/17 09:40:49;;;;;;;30.30;13.40;;;2.80;1.00;;;;;;5023645;28;20908;-74
2024/01/17 09:43:16;;;;;;;25.00;11.90;;;2.90;1.00;;;;;;5033225;28;20215;-75
2024/01/17 09:45:42;;;;;;;20.23;11.87;;;3.10;1.00;;;;;;5047518;28;20416;-78
2024/01/17 09:48:13;;;;;;;21.07;11.23;;;2.90;1.00;;;;;;5035035;28;20439;-79
2024/01/17 09:50:39;;;;;;;20.13;9.87;;;2.60;1.00;;;;;;5016411;28;20452;-77
2024/01/17 09:53:14;;;;;;;17.50;10.30;;;2.60;1.00;;;;;;5026361;28;20992;-77
2024/01/17 09:55:41;;;;;;;19.30;10.23;;;2.60;1.00;;;;;;5050612;28;20185;-74
2024/01/17 09:58:09;;;;;;;19.50;11.03;;;3.00;1.00;;;;;;5022513;28;20498;-75
2024/01/17 10:00:36;;;;;;;17.87;10.47;;;2.80;1.00;;;;;;5024325;28;20432;-77
2024/01/17 10:03:04;;;;;;;17.57;9.43;;;2.70;1.00;;;;;;5030878;28;20420;-75
2024/01/17 10:05:31;;;;;;;17.53;10.63;;;2.70;1.00;;;;;;5025661;28;20413;-75
2024/01/17 10:07:59;;;;;;;19.83;10.70;;;2.70;1.00;;;;;;5042041;28;20450;-79
2024/01/17 10:10:25;;;;;;;17.83;10.70;;;2.60;1.00;;;;;;5029291;28;20842;-75
2024/01/17 10:12:54;;;;;;;21.23;10.53;;;2.60;1.00;;;;;;5023460;28;20417;-77
2024/01/17 10:15:23;;;;;;;27.53;10.80;;;2.70;1.00;;;;;;5024372;28;20219;-75
2024/01/17 10:17:52;;;;;;;17.50;10.77;;;3.10;1.00;;;;;;5025676;28;20477;-79
2024/01/17 10:20:18;;;;;;;19.23;9.90;;;2.80;1.00;;;;;;5029951;28;20936;-75
2024/01/17 10:22:46;;;;;;;20.10;10.80;;;2.80;1.00;;;;;;5028404;28;20563;-76
2024/01/17 10:25:12;;;;;;;19.50;10.03;;;2.90;1.00;;;;;;5033183;28;20268;-74
2024/01/17 10:27:37;;;;;;;20.33;10.73;;;3.00;1.00;;;;;;5033187;28;20935;-76
2024/01/17 10:30:04;;;;;;;21.57;10.90;;;3.10;1.00;;;;;;5022218;28;20204;-78
2024/01/17 10:32:31;;;;;;;19.27;10.87;;;3.30;1.00;;;;;;5027733;28;20178;-76
2024/01/17 10:34:58;;;;;;;19.97;10.73;;;;;;;;;;5022313;28;20468;-75
2024/01/17 10:37:24;;;;;;;17.07;9.60;;;3.60;1.00;;;;;;5031270;28;21007;-73
2024/01/17 10:40:10;;;;;;;17.30;9.47;;;3.70;1.00;;;;;;5030993;28;20438;-75
2024/01/17 10:42:37;;;;;;;15.97;9.33;;;3.80;1.00;;;;;;5025784;28;20185;-75
2024/01/17 10:45:03;;;;;;;17.47;10.70;;;3.80;1.00;;;;;;5030610;28;20431;-75
2024/01/17 10:47:29;;;;;;;17.60;10.13;;;3.90;1.00;;;;;;5029096;28;20507;-76
2024/01/17 10:49:54;;;;;;;14.50;9.03;;;4.00;1.00;;;;;;5022091;28;20544;-76
2024/01/17 10:52:25;;;;;;;15.93;9.23;;;4.00;1.00;;;;;;5019560;28;20186;-73
2024/01/17 10:54:51;;;;;;;18.80;10.20;;;4.00;1.00;;;;;;5020685;28;20265;-77
2024/01/17 10:57:20;;;;;;;19.27;10.27;;;;;;;;;;5025058;28;20540;-76
2024/01/17 10:59:48;;;;;;;36.63;13.90;;;4.00;1.00;;;;;;5019559;28;20452;-75
2024/01/17 11:02:23;;;;;;;27.53;13.27;;;3.90;1.00;;;;;;5017923;28;20417;-75
2024/01/17 11:05:12;;;;;;;25.77;14.03;;;3.60;1.00;;;;;;5016958;28;20413;-75
2024/01/17 11:07:40;;;;;;;34.50;14.90;;;3.40;1.00;;;;;;5015767;28;20412;-75
2024/01/17 11:10:07;;;;;;;32.27;16.33;;;3.20;1.00;;;;;;5031400;28;20433;-75
2024/01/17 11:12:36;;;;;;;33.40;16.57;;;3.10;1.00;;;;;;5025052;28;20456;-78
2024/01/17 11:15:05;;;;;;;28.40;15.43;;;3.00;1.00;;;;;;5031632;28;20420;-75
2024/01/17 11:17:39;;;;;;;29.13;14.20;;;2.90;1.00;;;;;;5016662;28;20457;-76
2024/01/17 11:20:08;;;;;;;30.43;13.60;;;2.90;1.00;;;;;;5021304;28;20527;-76
2024/01/17 11:22:38;;;;;;;27.50;14.37;;;2.80;1.00;;;;;;5023033;28;20419;-75
2024/01/17 11:25:27;;;;;;;125.43;16.23;;;2.70;1.00;;;;;;5039405;28;20411;-76
2024/01/17 11:28:04;;;;;;;33.30;15.67;;;2.60;1.00;;;;;;5032891;28;20460;-75
2024/01/17 11:30:30;;;;;;;36.47;17.70;;;2.60;1.00;;;;;;5021479;28;21015;-75
2024/01/17 11:33:08;;;;;;;35.43;18.47;;;2.50;1.00;;;;;;5027475;28;20435;-75
2024/01/17 11:35:54;;;;;;;32.33;16.30;;;2.30;1.00;;;;;;5022068;28;20679;-75
2024/01/17 11:38:25;;;;;;;30.70;16.43;;;2.60;1.00;;;;;;5028266;28;20487;-73
2024/01/17 11:40:51;;;;;;;39.47;18.70;;;2.10;1.00;;;;;;5018488;28;20555;-76
2024/01/17 11:43:20;;;;;;;43.30;20.37;;;2.00;1.00;;;;;;5023480;28;20441;-75
2024/01/17 11:45:50;;;;;;;39.47;18.27;;;2.40;1.00;;;;;;5026426;28;20448;-74
2024/01/17 11:48:23;;;;;;;30.63;17.70;;;2.00;1.00;;;;;;5026650;28;20474;-75
2024/01/17 11:50:56;;;;;;;41.73;18.60;;;2.10;1.00;;;;;;5026750;28;20444;-73
2024/01/17 11:53:24;;;;;;;38.77;18.10;;;2.20;1.00;;;;;;5032353;28;20953;-74
2024/01/17 11:55:50;;;;;;;42.80;19.93;;;2.10;1.00;;;;;;5039208;28;20429;-75
2024/01/17 11:58:16;;;;;;;40.10;17.37;;;2.40;1.00;;;;;;5040653;28;20466;-73
2024/01/17 12:00:43;;;;;;;33.77;16.90;;;;;;;;;;5032803;28;20436;-74
2024/01/17 12:03:08;;;;;;;37.30;17.70;;;1.80;1.00;;;;;;5030705;28;20173;-75
2024/01/17 12:05:37;;;;;;;37.10;17.07;;;2.10;1.00;;;;;;5026974;28;20779;-73
2024/01/17 12:08:06;;;;;;;42.10;18.00;;;2.10;1.00;;;;;;5030649;28;20732;-76
2024/01/17 12:10:31;;;;;;;41.40;18.33;;;2.30;1.00;;;;;;5027734;28;20439;-77
2024/01/17 12:12:58;;;;;;;37.60;17.20;;;2.30;1.00;;;;;;5042703;28;20482;-77
2024/01/17 12:15:24;;;;;;;35.97;17.67;;;2.40;1.00;;;;;;5029462;28;20189;-77
2024/01/17 12:17:50;;;;;;;34.30;17.57;;;2.30;1.00;;;;;;5042814;28;20459;-75
2024/01/17 12:20:16;;;;;;;34.13;16.77;;;2.30;1.00;;;;;;5044983;28;20206;-76
2024/01/17 12:22:52;;;;;;;38.53;17.77;;;2.30;1.00;;;;;;5032857;28;20925;-76
2024/01/17 12:25:18;;;;;;;34.00;17.80;;;2.40;1.00;;;;;;5035384;28;20421;-77
2024/01/17 12:27:51;;;;;;;38.70;20.40;;;2.50;1.00;;;;;;5020070;28;20456;-74
2024/01/17 12:30:17;;;;;;;37.47;19.17;;;2.60;1.00;;;;;;5026828;28;20491;-74
2024/01/17 12:32:43;;;;;;;36.03;19.70;;;;;;;;;;5028474;28;20511;-76
2024/01/17 12:35:09;;;;;;;42.07;20.37;;;2.60;1.00;;;;;;5050830;28;20552;-75
2024/01/17 12:37:35;;;;;;;47.97;18.47;;;2.50;1.00;;;;;;5035589;28;20464;-76
2024/01/17 12:40:04;;;;;;;41.80;18.63;;;2.50;1.00;;;;;;5036587;28;20229;-77
2024/01/17 12:42:31;;;;;;;40.73;16.97;;;2.60;1.00;;;;;;5024307;28;21009;-77
2024/01/17 12:44:57;;;;;;;40.10;17.70;;;2.50;1.00;;;;;;5027644;28;20895;-77
2024/01/17 12:47:23;;;;;;;29.50;16.50;;;2.70;1.00;;;;;;5025240;28;20572;-74
2024/01/17 12:49:48;;;;;;;29.73;15.57;;;2.50;1.00;;;;;;5030066;28;20458;-73